createdAt,value
2018-04-26T00:04:47.632Z,1014.2
2018-04-26T00:09:47.682Z,1014.3
2018-04-26T00:14:47.687Z,1014.1
2018-04-26T00:19:47.829Z,1014.1
2018-04-26T00:24:59.947Z,1014.1
2018-04-26T00:29:59.870Z,1014.3
2018-04-26T00:34:59.850Z,1014.4
2018-04-26T00:39:59.839Z,1014.4
2018-04-26T00:44:59.900Z,1014.3
2018-04-26T00:49:59.696Z,1014.3
2018-04-26T00:54:59.849Z,1014.2
2018-04-26T00:59:59.689Z,1014.2
2018-04-26T01:04:59.692Z,1014.4
2018-04-26T01:10:11.537Z,1014.2
2018-04-26T01:15:11.463Z,1014.1
2018-04-26T01:20:11.837Z,1014.2
2018-04-26T01:25:11.424Z,1014.3
2018-04-26T01:30:11.440Z,1014.4
2018-04-26T01:35:11.284Z,1014.4
2018-04-26T01:40:11.412Z,1014.4
2018-04-26T01:45:12.794Z,1014.4
2018-04-26T01:50:12.723Z,1014.4
2018-04-26T01:55:24.415Z,1014.4
2018-04-26T02:00:24.370Z,1014.4
2018-04-26T02:05:24.278Z,1014.4
2018-04-26T02:10:24.325Z,1014.3
2018-04-26T02:15:24.363Z,1014.4
2018-04-26T02:20:24.273Z,1014.4
2018-04-26T02:25:24.310Z,1014.4
2018-04-26T02:30:24.378Z,1014.5
2018-04-26T02:35:24.278Z,1014.6
2018-04-26T02:40:36.261Z,1014.6
2018-04-26T02:45:36.025Z,1014.5
2018-04-26T02:50:35.878Z,1014.5
2018-04-26T02:55:36.167Z,1014.8
2018-04-26T03:00:36.016Z,1014.7
2018-04-26T03:05:35.889Z,1014.8
2018-04-26T03:10:36.107Z,1014.9
2018-04-26T03:15:35.854Z,1015.1
2018-04-26T03:20:36.060Z,1015.1
2018-04-26T03:25:48.250Z,1015.1
2018-04-26T03:30:47.977Z,1015.2
2018-04-26T03:35:48.124Z,1015.2
2018-04-26T03:40:48.181Z,1015.2
2018-04-26T03:45:48.124Z,1015.3
2018-04-26T03:50:47.986Z,1015.4
2018-04-26T03:55:48.184Z,1015.5
2018-04-26T04:00:47.969Z,1015.4
2018-04-26T04:05:48.160Z,1015.5
2018-04-26T04:10:59.995Z,1015.5
2018-04-26T04:15:59.661Z,1015.7
2018-04-26T04:20:59.705Z,1015.8
2018-04-26T04:25:59.705Z,1015.9
2018-04-26T04:30:59.912Z,1015.8
2018-04-26T04:35:59.701Z,1015.9
2018-04-26T04:40:59.853Z,1015.9
2018-04-26T04:45:59.709Z,1015.9
2018-04-26T04:50:59.942Z,1015.9
2018-04-26T04:55:59.859Z,1016
2018-04-26T05:00:59.740Z,1016
2018-04-26T05:06:00.024Z,1015.9
2018-04-26T05:11:02.432Z,1016.1
2018-04-26T05:16:02.114Z,1016.2
2018-04-26T05:21:11.874Z,1016.3
2018-04-26T05:26:11.722Z,1016.3
2018-04-26T05:31:11.783Z,1016.2
2018-04-26T05:36:11.818Z,1016.3
2018-04-26T05:41:11.733Z,1016.2
2018-04-26T05:46:11.599Z,1016.3
2018-04-26T05:51:11.597Z,1016.5
2018-04-26T05:56:11.621Z,1016.7
2018-04-26T06:01:11.631Z,1016.6
2018-04-26T06:06:11.811Z,1016.6
2018-04-26T06:11:11.878Z,1016.4
2018-04-26T06:16:11.738Z,1016.4
2018-04-26T06:21:11.629Z,1016.5
2018-04-26T06:26:11.855Z,1016.5
2018-04-26T06:31:23.552Z,1016.5
2018-04-26T06:36:23.474Z,1016.6
2018-04-26T06:41:23.533Z,1016.7
2018-04-26T06:46:23.427Z,1016.6
2018-04-26T06:51:23.497Z,1016.7
2018-04-26T06:56:23.303Z,1016.8
2018-04-26T07:01:23.437Z,1016.9
2018-04-26T07:06:29.384Z,1017
2018-04-26T07:11:29.207Z,1017.1
2018-04-26T07:16:39.052Z,1017.2
2018-04-26T07:21:38.965Z,1017.2
2018-04-26T07:26:38.968Z,1017.3
2018-04-26T07:31:38.793Z,1017.4
2018-04-26T07:36:38.922Z,1017.4
2018-04-26T07:41:40.138Z,1017.4
2018-04-26T07:46:40.151Z,1017.4
2018-04-26T07:51:40.135Z,1017.5
2018-04-26T07:56:40.303Z,1017.6
2018-04-26T08:01:53.067Z,1017.7
2018-04-26T08:06:52.548Z,1017.8
2018-04-26T08:11:52.578Z,1017.8
2018-04-26T08:16:52.645Z,1017.8
2018-04-26T08:21:52.411Z,1017.9
2018-04-26T08:26:52.418Z,1018
2018-04-26T08:31:52.495Z,1018.1
2018-04-26T08:36:57.604Z,1018.3
2018-04-26T08:41:57.000Z,1018.4
2018-04-26T08:47:07.660Z,1018.5
2018-04-26T08:52:07.255Z,1018.6
2018-04-26T08:57:07.508Z,1018.7
2018-04-26T09:02:07.481Z,1018.8
2018-04-26T09:07:07.441Z,1018.8
2018-04-26T09:12:07.275Z,1018.9
2018-04-26T09:17:08.617Z,1019.2
2018-04-26T09:22:09.152Z,1019.2
2018-04-26T09:27:09.194Z,1019.3
2018-04-26T09:32:09.273Z,1019.4
2018-04-26T09:37:09.020Z,1019.4
2018-04-26T09:42:09.224Z,1019.4
2018-04-26T09:47:09.030Z,1019.4
2018-04-26T09:52:09.154Z,1019.3
2018-04-26T09:57:09.184Z,1019.4
2018-04-26T10:02:09.273Z,1019.5
2018-04-26T10:07:09.153Z,1019.4
2018-04-26T10:12:09.047Z,1019.4
2018-04-26T10:17:09.232Z,1019.2
2018-04-26T10:22:21.416Z,1019.2
2018-04-26T10:27:21.254Z,1019.2
2018-04-26T10:32:21.127Z,1019.2
2018-04-26T10:37:21.144Z,1019.2
2018-04-26T10:42:21.364Z,1019.2
2018-04-26T10:47:21.288Z,1019
2018-04-26T10:52:21.324Z,1019
2018-04-26T10:57:21.133Z,1018.9
2018-04-26T11:02:21.151Z,1018.9
2018-04-26T11:07:33.461Z,1018.6
2018-04-26T11:12:33.343Z,1018.6
2018-04-26T11:17:33.373Z,1018.7
2018-04-26T11:22:33.435Z,1018.5
2018-04-26T11:27:33.442Z,1018.5
2018-04-26T11:32:33.214Z,1018.3
2018-04-26T11:37:33.417Z,1018.3
2018-04-26T11:42:33.235Z,1018.4
2018-04-26T11:47:33.380Z,1018.3
2018-04-26T11:52:33.724Z,1018.4
2018-04-26T11:57:33.577Z,1018.6
2018-04-26T12:02:33.794Z,1018.6
2018-04-26T12:07:33.927Z,1018.6
2018-04-26T12:12:33.864Z,1018.6
2018-04-26T12:17:46.273Z,1018.6
2018-04-26T12:22:46.227Z,1018.7
2018-04-26T12:27:46.128Z,1018.7
2018-04-26T12:32:46.185Z,1019
2018-04-26T12:37:46.233Z,1019
2018-04-26T12:42:46.279Z,1018.9
2018-04-26T12:47:46.167Z,1019
2018-04-26T12:52:46.033Z,1019
2018-04-26T12:57:46.973Z,1019.2
2018-04-26T13:02:58.069Z,1019.1
2018-04-26T13:07:58.200Z,1019.1
2018-04-26T13:12:57.953Z,1019
2018-04-26T13:17:58.063Z,1018.9
2018-04-26T13:22:58.005Z,1018.9
2018-04-26T13:27:57.834Z,1018.8
2018-04-26T13:32:57.804Z,1018.6
2018-04-26T13:37:58.033Z,1018.6
2018-04-26T13:42:58.245Z,1018.6
2018-04-26T13:48:10.756Z,1018.5
2018-04-26T13:53:10.686Z,1018.5
2018-04-26T13:58:10.729Z,1018.5
2018-04-26T14:03:10.508Z,1018.5
2018-04-26T14:08:10.504Z,1018.5
2018-04-26T14:13:10.729Z,1018.4
2018-04-26T14:18:10.664Z,1018.5
2018-04-26T14:23:13.063Z,1018.5
2018-04-26T14:28:12.275Z,1018.5
2018-04-26T14:33:24.755Z,1018.5
2018-04-26T14:38:24.509Z,1018.5
2018-04-26T14:43:24.711Z,1018.5
2018-04-26T14:48:24.481Z,1018.5
2018-04-26T14:53:26.711Z,1018.5
2018-04-26T14:58:24.518Z,1018.4
2018-04-26T15:03:24.531Z,1018.3
2018-04-26T15:08:28.088Z,1018.3
2018-04-26T15:13:28.158Z,1018.4
2018-04-26T15:18:39.803Z,1018.4
2018-04-26T15:23:39.491Z,1018.4
2018-04-26T15:28:39.530Z,1018.4
2018-04-26T15:33:39.722Z,1018.5
2018-04-26T15:38:39.719Z,1018.4
2018-04-26T15:43:40.362Z,1018.4
2018-04-26T15:48:39.731Z,1018.4
2018-04-26T15:53:41.895Z,1018.4
2018-04-26T15:58:41.918Z,1018.3
2018-04-26T16:03:54.063Z,1018.4
2018-04-26T16:08:53.739Z,1018.4
2018-04-26T16:13:53.730Z,1018.5
2018-04-26T16:18:53.925Z,1018.5
2018-04-26T16:23:54.260Z,1018.6
2018-04-26T16:28:53.925Z,1018.7
2018-04-26T16:33:53.939Z,1018.6
2018-04-26T16:38:54.024Z,1018.7
2018-04-26T16:43:53.960Z,1018.7
2018-04-26T16:49:05.567Z,1018.8
2018-04-26T16:54:05.101Z,1018.8
2018-04-26T16:59:05.101Z,1018.9
2018-04-26T17:04:05.106Z,1018.9
2018-04-26T17:09:05.086Z,1019
2018-04-26T17:14:05.094Z,1018.9
2018-04-26T17:19:05.145Z,1018.9
2018-04-26T17:24:05.106Z,1018.9
2018-04-26T17:29:05.119Z,1019
2018-04-26T17:34:16.916Z,1018.9
2018-04-26T17:39:16.156Z,1018.9
2018-04-26T17:44:16.120Z,1019
2018-04-26T17:49:16.331Z,1019
2018-04-26T17:54:16.383Z,1019
2018-04-26T17:59:16.383Z,1019
2018-04-26T18:04:16.401Z,1019.2
2018-04-26T18:09:18.944Z,1019.2
2018-04-26T18:14:18.693Z,1019.3
2018-04-26T18:19:30.722Z,1019.4
2018-04-26T18:24:30.435Z,1019.4
2018-04-26T18:29:30.444Z,1019.5
2018-04-26T18:34:30.410Z,1019.5
2018-04-26T18:39:30.425Z,1019.5
2018-04-26T18:44:30.754Z,1019.4
2018-04-26T18:49:30.435Z,1019.5
2018-04-26T18:54:30.466Z,1019.5
2018-04-26T18:59:30.482Z,1019.6
2018-04-26T19:04:30.875Z,1019.7
2018-04-26T19:09:32.952Z,1019.7
2018-04-26T19:14:31.641Z,1019.8
2018-04-26T19:19:33.502Z,1019.9
2018-04-26T19:24:33.198Z,1020
2018-04-26T19:29:45.214Z,1020.1
2018-04-26T19:34:44.955Z,1020.1
2018-04-26T19:39:44.991Z,1020.2
2018-04-26T19:44:44.999Z,1020.2
2018-04-26T19:49:45.005Z,1020.3
2018-04-26T19:54:44.988Z,1020.3
2018-04-26T19:59:45.006Z,1020.3
2018-04-26T20:04:45.022Z,1020.3
2018-04-26T20:09:47.630Z,1020.3
2018-04-26T20:14:56.894Z,1020.4
2018-04-26T20:19:56.632Z,1020.4
2018-04-26T20:24:56.633Z,1020.3
2018-04-26T20:29:56.766Z,1020.4
2018-04-26T20:34:56.629Z,1020.4
2018-04-26T20:39:56.608Z,1020.4
2018-04-26T20:44:56.813Z,1020.5
2018-04-26T20:49:56.629Z,1020.4
2018-04-26T20:54:56.672Z,1020.4
2018-04-26T20:59:56.939Z,1020.5
2018-04-26T21:04:56.636Z,1020.6
2018-04-26T21:09:57.176Z,1020.6
2018-04-26T21:14:59.778Z,1020.6
2018-04-26T21:19:59.626Z,1020.6
2018-04-26T21:25:11.764Z,1020.6
2018-04-26T21:30:11.868Z,1020.7
2018-04-26T21:35:11.602Z,1020.6
2018-04-26T21:40:11.491Z,1020.7
2018-04-26T21:45:11.664Z,1020.8
2018-04-26T21:50:11.528Z,1020.9
2018-04-26T21:55:11.623Z,1020.9
2018-04-26T22:00:11.805Z,1020.9
2018-04-26T22:05:12.025Z,1020.8
2018-04-26T22:10:24.152Z,1020.8
2018-04-26T22:15:24.175Z,1020.8
2018-04-26T22:20:23.903Z,1020.8
2018-04-26T22:25:24.353Z,1020.9
2018-04-26T22:30:24.107Z,1020.9
2018-04-26T22:35:24.102Z,1020.9
2018-04-26T22:40:24.313Z,1021
2018-04-26T22:45:24.363Z,1021.1
2018-04-26T22:50:24.287Z,1021
2018-04-26T22:55:24.134Z,1021.1
2018-04-26T23:00:24.168Z,1021.1
2018-04-26T23:05:24.387Z,1021.2
2018-04-26T23:10:24.866Z,1021.2
2018-04-26T23:15:24.779Z,1021.1
2018-04-26T23:20:37.041Z,1021.2
2018-04-26T23:25:36.927Z,1021.1
2018-04-26T23:30:36.749Z,1021.1
2018-04-26T23:35:36.979Z,1021.2
2018-04-26T23:40:36.771Z,1021.1
2018-04-26T23:45:36.981Z,1021
2018-04-26T23:50:36.982Z,1021
2018-04-26T23:55:36.772Z,1021
